Time;durP1;ratioP1;P1;durP2;ratioP2;P2;SDS_P1;SDS_P2;PMS_P1;PMS_P2;Temp;Humidity;BMP_temperature;BMP_pressure;BME280_temperature;BME280_humidity;BME280_pressure;Samples;Min_cycle;Max_cycle;Signal;HPM_P1;HPM_P2
2021/11/22 00:01:42;;;;;;;8.97;3.17;;;6.40;91.10;;;;;;4993803;28;20571;-66
2021/11/22 00:04:11;;;;;;;7.37;3.60;;;6.40;91.20;;;;;;4995249;28;20483;-66
2021/11/22 00:06:39;;;;;;;6.90;3.87;;;6.40;91.60;;;;;;4997510;28;20456;-66
2021/11/22 00:09:06;;;;;;;6.20;3.80;;;6.40;91.30;;;;;;4997431;28;20985;-66
2021/11/22 00:11:33;;;;;;;10.40;5.27;;;6.30;91.20;;;;;;4997537;28;20452;-66
2021/11/22 00:14:00;;;;;;;6.17;3.47;;;6.40;91.40;;;;;;4997192;28;20452;-66
2021/11/22 00:16:27;;;;;;;5.63;3.17;;;6.40;91.50;;;;;;4997596;28;20462;-66
2021/11/22 00:18:55;;;;;;;9.80;3.30;;;6.40;91.40;;;;;;4997355;28;20494;-66
2021/11/22 00:21:23;;;;;;;7.67;3.60;;;6.30;91.40;;;;;;4996992;28;20933;-66
2021/11/22 00:23:51;;;;;;;6.40;3.53;;;6.30;91.40;;;;;;4997305;28;20448;-66
2021/11/22 00:26:18;;;;;;;7.03;2.83;;;6.30;91.60;;;;;;4997299;28;20428;-66
2021/11/22 00:28:46;;;;;;;10.40;3.90;;;6.30;91.50;;;;;;4997081;28;20476;-66
2021/11/22 00:31:13;;;;;;;12.97;4.33;;;6.30;91.60;;;;;;4997348;28;20452;-66
2021/11/22 00:33:42;;;;;;;10.13;3.53;;;6.30;91.70;;;;;;4997376;28;20826;-66
2021/11/22 00:36:09;;;;;;;6.23;3.50;;;6.30;91.70;;;;;;4997163;28;20863;-67
2021/11/22 00:38:37;;;;;;;6.63;3.53;;;6.30;91.70;;;;;;4996983;28;20479;-67
2021/11/22 00:41:04;;;;;;;4.43;3.20;;;6.30;91.70;;;;;;4996735;28;20965;-66
2021/11/22 00:43:31;;;;;;;4.43;2.90;;;6.30;91.60;;;;;;4997079;28;20815;-66
2021/11/22 00:45:58;;;;;;;11.90;3.40;;;6.30;91.70;;;;;;4996830;28;20448;-67
2021/11/22 00:48:25;;;;;;;5.90;3.20;;;6.30;91.60;;;;;;4996465;28;20480;-67
2021/11/22 00:50:54;;;;;;;10.33;3.30;;;6.30;91.60;;;;;;4996774;28;20495;-66
2021/11/22 00:53:22;;;;;;;11.07;3.70;;;6.30;91.50;;;;;;4996727;28;20523;-66
2021/11/22 00:55:50;;;;;;;7.30;3.00;;;6.30;91.50;;;;;;4996630;28;20449;-66
2021/11/22 00:58:17;;;;;;;8.63;3.33;;;6.20;91.50;;;;;;4996608;28;20468;-66
2021/11/22 01:00:43;;;;;;;6.97;3.20;;;6.20;91.50;;;;;;4996590;28;20448;-66
2021/11/22 01:03:10;;;;;;;6.87;3.20;;;6.20;91.60;;;;;;4996173;28;21021;-66
2021/11/22 01:05:37;;;;;;;8.43;4.00;;;6.20;91.60;;;;;;4996560;28;20453;-66
2021/11/22 01:08:04;;;;;;;12.37;3.70;;;6.20;91.60;;;;;;4996346;28;20579;-66
2021/11/22 01:10:33;;;;;;;9.70;3.90;;;6.20;91.70;;;;;;4996016;28;20957;-66
2021/11/22 01:13:01;;;;;;;4.90;3.40;;;6.20;91.80;;;;;;4996226;28;20959;-66
2021/11/22 01:15:31;;;;;;;8.20;3.03;;;6.20;91.70;;;;;;4995566;28;20454;-66
2021/11/22 01:17:58;;;;;;;8.33;3.70;;;6.20;91.70;;;;;;4996017;28;20475;-66
2021/11/22 01:20:29;;;;;;;5.20;2.73;;;6.20;91.60;;;;;;4995832;28;20519;-66
2021/11/22 01:22:57;;;;;;;6.90;3.47;;;6.20;91.50;;;;;;4996195;28;20534;-66
2021/11/22 01:25:24;;;;;;;15.07;3.40;;;6.10;91.40;;;;;;4996192;28;20452;-66
2021/11/22 01:27:52;;;;;;;10.70;3.40;;;6.10;91.60;;;;;;4996079;28;20879;-66
2021/11/22 01:30:20;;;;;;;7.00;3.97;;;6.10;92.00;;;;;;4996055;28;20448;-66
2021/11/22 01:32:48;;;;;;;8.70;3.83;;;6.10;92.40;;;;;;4996035;28;20440;-66
2021/11/22 01:35:16;;;;;;;10.13;3.63;;;6.20;92.70;;;;;;4995945;28;20463;-66
2021/11/22 01:37:43;;;;;;;8.70;3.90;;;6.20;92.90;;;;;;4996400;28;20464;-66
2021/11/22 01:40:12;;;;;;;12.27;3.53;;;6.20;93.20;;;;;;4995825;28;20459;-66
2021/11/22 01:42:41;;;;;;;12.43;4.53;;;6.20;93.50;;;;;;4995739;28;20484;-66
2021/11/22 01:45:09;;;;;;;8.37;3.63;;;6.20;93.80;;;;;;4995850;28;20460;-66
2021/11/22 01:47:38;;;;;;;8.97;3.90;;;6.20;93.90;;;;;;4995592;28;20472;-66
2021/11/22 01:50:06;;;;;;;6.00;4.00;;;6.20;94.00;;;;;;4995939;28;20452;-66
2021/11/22 01:52:33;;;;;;;6.13;3.70;;;6.20;94.20;;;;;;4995564;28;20440;-66
2021/11/22 01:54:59;;;;;;;8.07;4.40;;;6.30;94.40;;;;;;4995315;28;20910;-66
2021/11/22 01:57:26;;;;;;;10.40;4.87;;;6.30;94.50;;;;;;4995435;28;20476;-66
2021/11/22 01:59:53;;;;;;;13.67;5.53;;;6.30;94.70;;;;;;4995429;28;20454;-67
2021/11/22 02:02:20;;;;;;;12.40;5.33;;;6.40;94.90;;;;;;4995330;28;20551;-66
2021/11/22 02:04:48;;;;;;;13.93;6.33;;;6.40;95.10;;;;;;4995302;28;20444;-66
2021/11/22 02:07:15;;;;;;;18.53;7.47;;;6.40;95.30;;;;;;4994852;28;20486;-66
2021/11/22 02:09:42;;;;;;;19.87;12.70;;;6.50;95.50;;;;;;4994951;28;20432;-66
2021/11/22 02:12:09;;;;;;;26.70;15.27;;;6.40;95.80;;;;;;4995142;28;20467;-66
2021/11/22 02:14:36;;;;;;;26.10;16.50;;;6.40;96.00;;;;;;4995194;28;20459;-66
2021/11/22 02:17:03;;;;;;;26.23;18.77;;;6.50;96.50;;;;;;4994815;28;20470;-66
2021/11/22 02:19:30;;;;;;;28.73;17.77;;;6.50;96.70;;;;;;4994973;28;20466;-66
2021/11/22 02:21:58;;;;;;;29.10;18.60;;;6.50;96.90;;;;;;4994705;28;20476;-66
2021/11/22 02:24:25;;;;;;;29.57;20.40;;;6.50;97.20;;;;;;4995061;28;20452;-66
2021/11/22 02:26:55;;;;;;;32.00;20.77;;;6.60;97.40;;;;;;4994802;28;20453;-66
2021/11/22 02:29:23;;;;;;;32.90;20.40;;;6.60;97.30;;;;;;4994611;28;20911;-66
2021/11/22 02:31:50;;;;;;;30.53;20.10;;;6.60;97.40;;;;;;4994896;28;20974;-66
2021/11/22 02:34:17;;;;;;;29.80;21.63;;;6.70;97.60;;;;;;4994937;28;20455;-66
2021/11/22 02:36:43;;;;;;;30.73;22.00;;;6.70;97.90;;;;;;4994782;28;20452;-66
2021/11/22 02:39:11;;;;;;;33.50;20.97;;;6.70;97.60;;;;;;4994727;28;20475;-66
2021/11/22 02:41:39;;;;;;;30.33;20.13;;;6.80;97.70;;;;;;4994685;28;20453;-66
2021/11/22 02:44:06;;;;;;;27.03;17.63;;;6.80;97.70;;;;;;4994555;28;20506;-66
2021/11/22 02:46:32;;;;;;;29.17;19.40;;;6.80;97.70;;;;;;4994389;28;20965;-66
2021/11/22 02:48:59;;;;;;;30.47;21.03;;;6.80;97.70;;;;;;4994526;28;20480;-66
2021/11/22 02:51:26;;;;;;;28.60;20.30;;;6.90;97.70;;;;;;4994558;28;20444;-66
2021/11/22 02:54:00;;;;;;;31.77;21.37;;;6.90;97.80;;;;;;4994667;28;20452;-66
2021/11/22 02:56:30;;;;;;;26.97;19.13;;;6.90;97.70;;;;;;4994444;28;20447;-66
2021/11/22 02:58:58;;;;;;;24.90;18.83;;;7.00;97.80;;;;;;4994077;28;20986;-66
2021/11/22 03:01:26;;;;;;;30.43;19.03;;;7.00;97.70;;;;;;4994435;28;20448;-66
2021/11/22 03:03:54;;;;;;;26.23;19.63;;;7.00;97.70;;;;;;4994296;28;20476;-66
2021/11/22 03:06:22;;;;;;;29.07;20.43;;;7.10;97.60;;;;;;4994373;28;20437;-67
2021/11/22 03:08:50;;;;;;;32.67;18.90;;;7.10;97.60;;;;;;4994210;28;20472;-66
2021/11/22 03:11:18;;;;;;;23.47;19.50;;;7.20;97.60;;;;;;4994282;28;20448;-66
2021/11/22 03:13:47;;;;;;;30.47;20.60;;;7.20;97.60;;;;;;4994213;28;20530;-66
2021/11/22 03:16:15;;;;;;;25.83;19.57;;;7.20;97.50;;;;;;4994283;28;20449;-66
2021/11/22 03:18:43;;;;;;;27.20;19.93;;;7.30;97.60;;;;;;4994112;28;20468;-66
2021/11/22 03:21:10;;;;;;;26.77;20.67;;;7.30;97.50;;;;;;4994327;28;20468;-66
2021/11/22 03:23:38;;;;;;;27.20;19.43;;;7.30;97.40;;;;;;4994070;28;20519;-66
2021/11/22 03:26:05;;;;;;;26.80;20.73;;;7.30;97.40;;;;;;4993770;28;20459;-66
2021/11/22 03:28:32;;;;;;;30.00;21.07;;;7.30;97.30;;;;;;4993714;28;20551;-66
2021/11/22 03:31:01;;;;;;;31.43;22.67;;;7.30;97.30;;;;;;4994532;28;20451;-66
2021/11/22 03:33:28;;;;;;;27.33;22.33;;;7.40;97.30;;;;;;4994023;28;20445;-66
2021/11/22 03:35:55;;;;;;;28.50;22.30;;;7.40;97.30;;;;;;4993709;28;20455;-66
2021/11/22 03:38:25;;;;;;;27.83;22.00;;;7.40;97.30;;;;;;4994037;28;20885;-66
2021/11/22 03:40:54;;;;;;;27.67;20.70;;;7.40;97.40;;;;;;4998055;28;20455;-66
2021/11/22 03:43:27;;;;;;;31.43;22.80;;;7.50;97.70;;;;;;4997966;28;20479;-66
2021/11/22 03:45:55;;;;;;;34.80;24.13;;;7.50;97.40;;;;;;4998277;28;20436;-66
2021/11/22 03:48:23;;;;;;;30.53;22.00;;;7.50;97.40;;;;;;4998027;28;20468;-66
2021/11/22 03:50:50;;;;;;;34.00;20.40;;;7.50;97.30;;;;;;4997968;28;20470;-66
2021/11/22 03:53:17;;;;;;;27.97;22.20;;;7.50;97.40;;;;;;4997549;28;20455;-66
2021/11/22 03:55:44;;;;;;;34.80;22.27;;;7.50;97.30;;;;;;4997858;28;20872;-66
2021/11/22 03:58:11;;;;;;;27.03;21.80;;;7.60;97.40;;;;;;4997748;28;20472;-66
2021/11/22 04:00:38;;;;;;;26.20;20.87;;;7.60;97.30;;;;;;4998068;28;20460;-66
2021/11/22 04:03:04;;;;;;;31.93;23.80;;;7.60;97.40;;;;;;4997398;28;20488;-66
2021/11/22 04:05:33;;;;;;;28.87;22.87;;;7.60;97.40;;;;;;4997647;28;20452;-66
2021/11/22 04:07:59;;;;;;;28.50;22.60;;;7.60;97.30;;;;;;4997580;28;20471;-66
2021/11/22 04:10:26;;;;;;;25.80;21.20;;;7.60;97.30;;;;;;4997570;28;20459;-66
2021/11/22 04:12:53;;;;;;;22.67;19.20;;;7.60;97.30;;;;;;4997657;28;20458;-66
2021/11/22 04:15:20;;;;;;;26.03;21.13;;;7.60;97.20;;;;;;4997167;28;20451;-66
2021/11/22 04:17:47;;;;;;;26.70;21.40;;;7.60;97.10;;;;;;4997388;28;20468;-66
2021/11/22 04:20:14;;;;;;;22.80;19.93;;;7.60;97.20;;;;;;4997310;28;20464;-66
2021/11/22 04:22:42;;;;;;;24.00;19.87;;;7.60;97.60;;;;;;4997302;28;20495;-66
2021/11/22 04:25:09;;;;;;;25.10;18.73;;;7.60;97.20;;;;;;4997317;28;20448;-67
2021/11/22 04:27:37;;;;;;;25.20;17.50;;;7.60;97.20;;;;;;4997205;28;20480;-66
2021/11/22 04:30:08;;;;;;;21.03;18.03;;;7.60;97.30;;;;;;4997331;28;20456;-66
2021/11/22 04:32:35;;;;;;;18.57;15.90;;;7.60;97.20;;;;;;4997201;28;20551;-66
2021/11/22 04:35:03;;;;;;;17.20;15.07;;;7.60;97.10;;;;;;4997236;28;20448;-66
2021/11/22 04:37:30;;;;;;;19.53;15.50;;;7.60;97.00;;;;;;4996754;28;21040;-66
2021/11/22 04:39:58;;;;;;;18.43;16.13;;;7.50;97.00;;;;;;4997151;28;20543;-66
2021/11/22 04:42:25;;;;;;;17.73;15.10;;;7.50;97.00;;;;;;4996953;28;20478;-66
2021/11/22 04:44:53;;;;;;;16.40;14.70;;;7.50;97.10;;;;;;4997150;28;20448;-66
2021/11/22 04:47:20;;;;;;;17.40;13.90;;;7.50;97.10;;;;;;4997087;28;20467;-66
2021/11/22 04:49:48;;;;;;;14.93;13.33;;;7.60;97.10;;;;;;4996873;28;20480;-66
2021/11/22 04:52:15;;;;;;;15.90;14.20;;;7.60;97.00;;;;;;4997114;28;20490;-66
2021/11/22 04:54:42;;;;;;;17.53;13.70;;;7.60;96.90;;;;;;4996760;28;20448;-66
2021/11/22 04:57:11;;;;;;;14.27;12.40;;;7.60;96.80;;;;;;4997043;28;20791;-66
2021/11/22 04:59:39;;;;;;;15.50;12.47;;;7.60;96.80;;;;;;4996535;28;20464;-66
2021/11/22 05:02:07;;;;;;;13.60;11.90;;;7.60;96.80;;;;;;4996488;28;21010;-66
2021/11/22 05:04:34;;;;;;;15.13;11.33;;;7.60;96.80;;;;;;4996577;28;20486;-67
2021/11/22 05:07:01;;;;;;;12.67;10.80;;;7.60;96.60;;;;;;4996507;28;20448;-67
2021/11/22 05:09:28;;;;;;;12.20;9.43;;;7.60;96.50;;;;;;4996488;28;20448;-66
2021/11/22 05:11:55;;;;;;;11.30;9.33;;;7.60;96.50;;;;;;4996405;28;20456;-66
2021/11/22 05:14:24;;;;;;;11.10;9.53;;;7.60;96.50;;;;;;4996144;28;20947;-67
2021/11/22 05:16:51;;;;;;;10.83;9.60;;;7.70;96.40;;;;;;4996452;28;20483;-67
2021/11/22 05:19:18;;;;;;;10.43;9.43;;;7.70;96.40;;;;;;4996088;28;20468;-67
2021/11/22 05:21:45;;;;;;;10.50;9.40;;;7.70;96.20;;;;;;4996319;28;20437;-67
2021/11/22 05:24:12;;;;;;;9.67;8.67;;;7.70;96.20;;;;;;4996153;28;20486;-67
2021/11/22 05:26:39;;;;;;;11.10;8.47;;;7.70;96.10;;;;;;4995951;28;20455;-67
2021/11/22 05:29:08;;;;;;;9.57;8.57;;;7.70;96.10;;;;;;4995791;28;20484;-67
2021/11/22 05:31:37;;;;;;;8.80;8.00;;;7.70;96.00;;;;;;4995901;28;20456;-67
2021/11/22 05:34:04;;;;;;;10.00;8.77;;;7.70;95.90;;;;;;4995780;28;20448;-67
2021/11/22 05:36:33;;;;;;;10.00;9.00;;;7.70;95.90;;;;;;4995973;28;20503;-67
2021/11/22 05:39:00;;;;;;;10.17;9.10;;;7.70;95.80;;;;;;4995918;28;20567;-67
2021/11/22 05:41:26;;;;;;;11.07;9.97;;;7.70;95.80;;;;;;4995984;28;20439;-67
2021/11/22 05:43:53;;;;;;;10.77;9.60;;;7.80;95.70;;;;;;4995857;28;20484;-67
2021/11/22 05:46:20;;;;;;;9.53;8.60;;;7.80;95.70;;;;;;4995946;28;20475;-66
2021/11/22 05:48:48;;;;;;;11.03;8.20;;;7.80;95.60;;;;;;4995895;28;20464;-66
2021/11/22 05:51:15;;;;;;;10.57;9.60;;;7.80;95.40;;;;;;4996688;28;20554;-67
2021/11/22 05:53:43;;;;;;;10.23;9.27;;;7.80;95.40;;;;;;4996011;28;20935;-67
2021/11/22 05:56:10;;;;;;;9.17;8.37;;;7.80;95.30;;;;;;4996240;28;20449;-67
2021/11/22 05:58:37;;;;;;;10.93;9.50;;;7.80;95.30;;;;;;4995891;28;21008;-67
2021/11/22 06:01:06;;;;;;;9.50;8.50;;;7.80;95.20;;;;;;4995812;28;20468;-67
2021/11/22 06:03:33;;;;;;;9.10;8.20;;;7.80;95.10;;;;;;4995749;28;21001;-67
2021/11/22 06:06:03;;;;;;;9.00;8.20;;;7.80;95.00;;;;;;4998854;28;20454;-67
2021/11/22 06:08:30;;;;;;;9.23;8.43;;;7.80;94.90;;;;;;4999520;28;20484;-67
2021/11/22 06:10:57;;;;;;;9.10;8.30;;;7.80;94.80;;;;;;4997869;28;20519;-67
2021/11/22 06:13:24;;;;;;;9.80;8.80;;;7.80;94.70;;;;;;4996624;28;20934;-67
2021/11/22 06:15:51;;;;;;;8.70;7.80;;;7.80;94.60;;;;;;4995292;28;20460;-67
2021/11/22 06:18:18;;;;;;;9.93;9.03;;;7.70;94.50;;;;;;4995740;28;20787;-67
2021/11/22 06:20:46;;;;;;;10.27;9.17;;;7.70;94.50;;;;;;4995026;28;20460;-67
2021/11/22 06:23:14;;;;;;;10.30;9.30;;;7.70;94.40;;;;;;4995104;28;20483;-67
2021/11/22 06:25:41;;;;;;;10.77;9.80;;;7.70;94.30;;;;;;4995001;28;20448;-67
2021/11/22 06:28:08;;;;;;;12.03;11.00;;;7.70;94.30;;;;;;4994933;28;20475;-67
2021/11/22 06:30:35;;;;;;;10.63;9.63;;;7.70;94.30;;;;;;4994965;28;20826;-67
2021/11/22 06:33:02;;;;;;;10.43;9.53;;;7.70;94.10;;;;;;4995026;28;20495;-67
2021/11/22 06:35:29;;;;;;;12.93;10.00;;;7.60;94.00;;;;;;4994867;28;20448;-67
2021/11/22 06:37:55;;;;;;;9.40;8.50;;;7.60;93.80;;;;;;4994860;28;20475;-67
2021/11/22 06:40:24;;;;;;;10.93;9.83;;;7.60;93.60;;;;;;4994767;28;20454;-67
2021/11/22 06:42:51;;;;;;;10.27;9.30;;;7.50;93.50;;;;;;4994720;28;20456;-67
2021/11/22 06:45:18;;;;;;;13.10;9.57;;;7.50;93.50;;;;;;4994658;28;20486;-67
2021/11/22 06:47:46;;;;;;;10.17;9.17;;;7.40;93.40;;;;;;4994609;28;20468;-67
2021/11/22 06:50:13;;;;;;;10.60;9.50;;;7.40;93.40;;;;;;4995008;28;20833;-67
2021/11/22 06:52:40;;;;;;;10.57;9.47;;;7.40;93.50;;;;;;4995503;28;20904;-67
2021/11/22 06:55:07;;;;;;;9.67;8.67;;;7.30;93.60;;;;;;4994767;28;20447;-67
2021/11/22 06:57:36;;;;;;;9.97;8.97;;;7.30;93.70;;;;;;4994179;28;21005;-67
2021/11/22 07:00:04;;;;;;;11.40;10.20;;;7.30;93.80;;;;;;4994775;28;20456;-67
2021/11/22 07:02:31;;;;;;;12.33;10.37;;;7.30;93.80;;;;;;4994407;28;20766;-67
2021/11/22 07:04:58;;;;;;;10.70;9.70;;;7.30;93.80;;;;;;4994257;28;20568;-67
2021/11/22 07:07:25;;;;;;;11.30;10.20;;;7.30;93.70;;;;;;4994280;28;20468;-68
2021/11/22 07:09:53;;;;;;;11.20;10.10;;;7.30;93.60;;;;;;4994284;28;20866;-67
2021/11/22 07:12:20;;;;;;;10.37;9.37;;;7.30;93.50;;;;;;4994256;28;20447;-67
2021/11/22 07:14:48;;;;;;;10.93;9.90;;;7.30;93.50;;;;;;4993641;28;20448;-66
2021/11/22 07:17:15;;;;;;;11.00;9.73;;;7.30;93.50;;;;;;4994098;28;20826;-67
2021/11/22 07:19:43;;;;;;;12.47;11.27;;;7.30;93.50;;;;;;4994126;28;20460;-67
2021/11/22 07:22:10;;;;;;;16.17;14.67;;;7.20;93.40;;;;;;4994284;28;20882;-67
2021/11/22 07:24:40;;;;;;;21.27;19.30;;;7.20;93.50;;;;;;4993983;28;20494;-67
2021/11/22 07:27:07;;;;;;;22.07;19.67;;;7.20;93.60;;;;;;4994222;28;20452;-67
2021/11/22 07:29:34;;;;;;;17.37;15.43;;;7.20;93.60;;;;;;4994185;28;20450;-67
2021/11/22 07:32:02;;;;;;;16.37;14.80;;;7.20;93.80;;;;;;4993772;28;20829;-67
2021/11/22 07:34:29;;;;;;;14.83;13.43;;;7.30;94.00;;;;;;4994048;28;20933;-67
2021/11/22 07:36:56;;;;;;;15.37;13.00;;;7.20;94.10;;;;;;4993963;28;20450;-67
2021/11/22 07:39:23;;;;;;;15.80;13.57;;;7.30;94.30;;;;;;4994008;28;20448;-67
2021/11/22 07:41:51;;;;;;;17.80;14.50;;;7.30;94.50;;;;;;4993987;28;20451;-67
2021/11/22 07:44:18;;;;;;;16.80;14.57;;;7.30;94.60;;;;;;4993696;28;20911;-67
2021/11/22 07:46:45;;;;;;;15.07;12.80;;;7.30;94.60;;;;;;4993980;28;20470;-67
2021/11/22 07:49:13;;;;;;;21.23;14.80;;;7.40;94.60;;;;;;4993560;28;20997;-67
2021/11/22 07:51:41;;;;;;;17.13;14.93;;;7.40;94.50;;;;;;4993860;28;20459;-67
2021/11/22 07:54:08;;;;;;;19.30;14.53;;;7.40;94.40;;;;;;4993805;28;20535;-67
2021/11/22 07:56:35;;;;;;;19.73;16.27;;;7.40;94.40;;;;;;4993620;28;20996;-67
2021/11/22 07:59:02;;;;;;;20.07;16.10;;;7.40;94.20;;;;;;4993680;28;20475;-67
2021/11/22 08:01:29;;;;;;;16.07;14.07;;;7.40;94.10;;;;;;4993864;28;20452;-67
2021/11/22 08:03:55;;;;;;;16.83;14.83;;;7.40;94.00;;;;;;4993381;28;21001;-67
2021/11/22 08:06:25;;;;;;;16.40;14.73;;;7.40;94.00;;;;;;4993725;28;20787;-67
2021/11/22 08:08:52;;;;;;;18.13;15.50;;;7.50;94.00;;;;;;4994547;28;20527;-67
2021/11/22 08:11:31;;;;;;;17.20;15.50;;;7.50;94.00;;;;;;4993671;28;20450;-67
2021/11/22 08:13:58;;;;;;;16.93;15.17;;;7.50;94.00;;;;;;4993459;28;20793;-67
2021/11/22 08:16:25;;;;;;;17.50;14.77;;;7.50;93.90;;;;;;4993617;28;20437;-67
2021/11/22 08:18:52;;;;;;;17.87;16.07;;;7.60;93.90;;;;;;4993674;28;20552;-67
2021/11/22 08:21:19;;;;;;;18.87;17.17;;;7.60;94.00;;;;;;4993636;28;20488;-67
2021/11/22 08:23:47;;;;;;;16.93;15.30;;;7.60;94.40;;;;;;4993862;28;20459;-67
2021/11/22 08:26:13;;;;;;;18.03;16.23;;;7.70;94.00;;;;;;4996762;28;20448;-67
2021/11/22 08:28:40;;;;;;;18.27;15.70;;;7.70;93.80;;;;;;4997185;28;20571;-67
2021/11/22 08:31:07;;;;;;;17.80;16.20;;;7.80;93.70;;;;;;4997698;28;20817;-67
2021/11/22 08:33:34;;;;;;;14.93;13.00;;;7.80;93.40;;;;;;4997284;28;20539;-67
2021/11/22 08:36:01;;;;;;;15.30;13.77;;;7.90;93.30;;;;;;4997145;28;20451;-67
2021/11/22 08:38:27;;;;;;;15.53;13.97;;;7.90;93.30;;;;;;4996742;28;20484;-67
2021/11/22 08:40:56;;;;;;;17.50;15.80;;;7.90;93.30;;;;;;4997018;28;20459;-67
2021/11/22 08:43:22;;;;;;;19.50;15.17;;;8.00;93.10;;;;;;4996905;28;20451;-67
2021/11/22 08:45:49;;;;;;;16.17;14.57;;;8.10;92.90;;;;;;4996600;28;21009;-67
2021/11/22 08:48:19;;;;;;;17.73;15.93;;;8.10;92.60;;;;;;4996869;28;20468;-67
2021/11/22 08:50:47;;;;;;;16.67;14.70;;;8.20;92.50;;;;;;4996903;28;20444;-67
2021/11/22 08:53:13;;;;;;;16.97;15.43;;;8.20;92.30;;;;;;4996785;28;20448;-67
2021/11/22 08:55:40;;;;;;;18.27;16.47;;;8.20;92.00;;;;;;4997925;28;20781;-67
2021/11/22 08:58:08;;;;;;;17.20;15.50;;;8.20;91.90;;;;;;4996631;28;20463;-67
2021/11/22 09:00:38;;;;;;;18.17;16.47;;;8.20;91.70;;;;;;4996366;28;20810;-67
2021/11/22 09:03:05;;;;;;;17.27;15.60;;;8.20;91.50;;;;;;4996725;28;20451;-67
2021/11/22 09:05:32;;;;;;;17.60;15.97;;;8.20;91.40;;;;;;4996583;28;20476;-67
2021/11/22 09:08:00;;;;;;;16.70;15.20;;;8.20;91.60;;;;;;4996509;28;20468;-67
2021/11/22 09:10:27;;;;;;;16.50;14.80;;;8.30;91.60;;;;;;4996521;28;20447;-67
2021/11/22 09:12:54;;;;;;;16.40;14.90;;;8.40;91.70;;;;;;4996113;28;20934;-67
2021/11/22 09:15:23;;;;;;;15.60;14.30;;;8.40;91.60;;;;;;4996160;28;20949;-67
2021/11/22 09:17:50;;;;;;;16.07;14.57;;;8.50;91.50;;;;;;4996027;28;20479;-67
2021/11/22 09:20:17;;;;;;;15.87;14.27;;;8.60;91.40;;;;;;4996157;28;20959;-67
2021/11/22 09:22:44;;;;;;;17.63;15.73;;;8.60;91.30;;;;;;4996249;28;20448;-68
2021/11/22 09:25:12;;;;;;;16.67;15.17;;;8.70;91.20;;;;;;4995899;28;20821;-67
2021/11/22 09:27:39;;;;;;;15.27;13.73;;;8.80;91.10;;;;;;4995879;28;20476;-67
2021/11/22 09:30:08;;;;;;;18.27;16.57;;;8.80;91.10;;;;;;4995897;28;20946;-67
2021/11/22 09:32:36;;;;;;;18.23;16.40;;;8.90;91.00;;;;;;4995894;28;20949;-67
2021/11/22 09:35:03;;;;;;;19.27;16.80;;;9.00;90.80;;;;;;4996116;28;20452;-67
2021/11/22 09:37:32;;;;;;;14.93;13.60;;;9.00;90.60;;;;;;4994703;28;20483;-67
2021/11/22 09:39:58;;;;;;;19.63;14.57;;;9.00;90.50;;;;;;4995719;28;20461;-67
2021/11/22 09:42:25;;;;;;;17.93;16.23;;;9.10;90.50;;;;;;4995953;28;20463;-67
2021/11/22 09:44:53;;;;;;;17.53;15.80;;;9.10;90.30;;;;;;4995597;28;21048;-67
2021/11/22 09:47:20;;;;;;;17.97;16.27;;;9.10;90.20;;;;;;4995828;28;20468;-67
2021/11/22 09:49:53;;;;;;;16.40;14.90;;;9.00;89.80;;;;;;4995567;28;20811;-67
2021/11/22 09:52:20;;;;;;;18.10;16.40;;;8.90;89.10;;;;;;4995727;28;20899;-67
2021/11/22 09:54:47;;;;;;;16.00;14.40;;;8.80;89.00;;;;;;4995698;28;20447;-67
2021/11/22 09:57:14;;;;;;;15.87;14.40;;;8.80;89.00;;;;;;4995685;28;20444;-71
2021/11/22 09:59:41;;;;;;;14.50;13.03;;;8.80;89.00;;;;;;4995693;28;20441;-68
2021/11/22 10:02:08;;;;;;;14.53;13.23;;;8.70;89.00;;;;;;4995745;28;20436;-67
2021/11/22 10:04:35;;;;;;;14.00;12.60;;;8.70;89.20;;;;;;4995572;28;20482;-67
2021/11/22 10:07:07;;;;;;;13.27;12.03;;;8.70;89.50;;;;;;4995474;28;20448;-67
2021/11/22 10:09:44;;;;;;;11.53;10.50;;;8.70;89.80;;;;;;4995765;28;20440;-67
2021/11/22 10:12:17;;;;;;;11.53;10.53;;;8.70;90.10;;;;;;4995434;28;20440;-67
2021/11/22 10:14:47;;;;;;;14.90;11.10;;;8.80;90.30;;;;;;4995442;28;20424;-67
2021/11/22 10:17:23;;;;;;;10.57;9.47;;;8.80;89.80;;;;;;4995063;28;20441;-67
2021/11/22 10:20:12;;;;;;;9.70;8.80;;;8.80;89.70;;;;;;4995073;28;20478;-67
2021/11/22 10:22:42;;;;;;;9.53;8.73;;;8.90;89.10;;;;;;4995221;28;20515;-67
2021/11/22 10:25:30;;;;;;;8.70;7.90;;;9.00;89.70;;;;;;4995093;28;20468;-67
2021/11/22 10:28:02;;;;;;;8.97;8.27;;;9.10;89.60;;;;;;4995054;28;20472;-67
2021/11/22 10:30:31;;;;;;;8.50;7.80;;;9.20;88.40;;;;;;4995055;28;20451;-67
2021/11/22 10:32:59;;;;;;;8.80;8.00;;;9.30;88.40;;;;;;4995025;28;20448;-67
2021/11/22 10:35:28;;;;;;;9.43;8.57;;;9.30;87.90;;;;;;4994914;28;20440;-67
2021/11/22 10:37:59;;;;;;;9.33;8.60;;;9.40;86.40;;;;;;4994529;28;20994;-67
2021/11/22 10:40:27;;;;;;;9.23;8.33;;;9.50;85.90;;;;;;4994921;28;20440;-67
2021/11/22 10:42:55;;;;;;;10.57;8.60;;;9.60;86.10;;;;;;4994718;28;20448;-67
2021/11/22 10:45:28;;;;;;;9.63;8.63;;;9.70;86.30;;;;;;4994782;28;20516;-67
2021/11/22 10:48:00;;;;;;;10.33;9.53;;;9.90;84.90;;;;;;4994749;28;20476;-67
2021/11/22 10:50:30;;;;;;;7.83;7.03;;;10.10;83.40;;;;;;4994568;28;20979;-67
2021/11/22 10:53:02;;;;;;;7.40;6.70;;;10.40;82.50;;;;;;4994408;28;20861;-67
2021/11/22 10:55:30;;;;;;;7.10;6.50;;;10.70;81.20;;;;;;4994335;28;20429;-67
2021/11/22 10:58:00;;;;;;;7.40;6.70;;;11.10;80.10;;;;;;4994670;28;20468;-67
2021/11/22 11:00:29;;;;;;;7.47;6.77;;;11.50;78.30;;;;;;4994574;28;20439;-67
2021/11/22 11:02:58;;;;;;;7.10;6.37;;;11.90;74.60;;;;;;4994590;28;20448;-67
2021/11/22 11:05:28;;;;;;;7.43;6.87;;;12.30;73.50;;;;;;4994443;28;20484;-67
2021/11/22 11:07:59;;;;;;;10.23;7.37;;;12.50;72.70;;;;;;4994103;28;20992;-67
2021/11/22 11:10:27;;;;;;;7.70;7.10;;;12.70;71.60;;;;;;4994172;28;20459;-67
2021/11/22 11:12:55;;;;;;;7.60;6.87;;;13.00;69.40;;;;;;4994384;28;20444;-68
2021/11/22 11:15:23;;;;;;;7.50;6.77;;;13.30;68.10;;;;;;4994155;28;20942;-68
2021/11/22 11:17:50;;;;;;;6.57;6.07;;;13.40;65.20;;;;;;4994332;28;20472;-67
2021/11/22 11:20:21;;;;;;;6.20;5.60;;;13.30;64.90;;;;;;4994120;28;20463;-67
2021/11/22 11:22:49;;;;;;;7.20;6.40;;;13.40;65.40;;;;;;4994261;28;20455;-67
2021/11/22 11:25:19;;;;;;;6.43;5.83;;;13.40;65.10;;;;;;4993798;28;20866;-67
2021/11/22 11:27:48;;;;;;;6.43;5.93;;;13.50;63.90;;;;;;4993954;28;20469;-67
2021/11/22 11:30:17;;;;;;;7.43;6.83;;;13.60;63.30;;;;;;4993845;28;20946;-68
2021/11/22 11:32:45;;;;;;;6.67;5.90;;;13.40;62.90;;;;;;4994241;28;20503;-67
2021/11/22 11:35:15;;;;;;;6.43;5.90;;;13.40;63.00;;;;;;4994233;28;20448;-67
2021/11/22 11:38:08;;;;;;;6.13;5.53;;;13.70;62.00;;;;;;4993879;28;20472;-67
2021/11/22 11:40:57;;;;;;;6.50;5.90;;;14.10;61.30;;;;;;4980353;28;20497;-73
2021/11/22 11:44:05;;;;;;;7.37;5.53;;;14.50;59.00;;;;;;4994170;28;20429;-73
2021/11/22 11:46:47;;;;;;;5.43;4.93;;;14.90;57.90;;;;;;4994009;28;20478;-73
2021/11/22 11:49:14;;;;;;;5.53;5.03;;;15.20;57.40;;;;;;4993718;28;20974;-73
2021/11/22 11:51:43;;;;;;;5.70;5.23;;;15.60;56.70;;;;;;4994011;28;20449;-73
2021/11/22 11:54:15;;;;;;;6.10;5.07;;;15.80;54.80;;;;;;4993942;28;20444;-74
2021/11/22 11:56:52;;;;;;;5.17;4.80;;;16.10;54.50;;;;;;4993630;28;20520;-74
2021/11/22 11:59:28;;;;;;;5.83;5.07;;;16.30;52.70;;;;;;4995025;28;20478;-74
2021/11/22 12:02:07;;;;;;;6.90;5.60;;;16.40;52.90;;;;;;4997828;28;20436;-74
2021/11/22 12:05:03;;;;;;;6.37;5.73;;;16.60;52.90;;;;;;4997693;28;20440;-74
2021/11/22 12:07:33;;;;;;;8.40;6.00;;;16.90;52.40;;;;;;4963692;28;21041;-74
2021/11/22 12:10:15;;;;;;;5.53;5.03;;;17.20;51.40;;;;;;4997714;28;20448;-74
2021/11/22 12:12:49;;;;;;;5.93;5.43;;;17.50;50.80;;;;;;4997713;28;20523;-74
2021/11/22 12:15:21;;;;;;;6.17;5.67;;;17.80;50.30;;;;;;4997755;28;20436;-74
2021/11/22 12:18:02;;;;;;;5.90;5.40;;;18.10;48.70;;;;;;4997500;28;20468;-74
2021/11/22 12:20:50;;;;;;;5.10;4.70;;;18.20;47.50;;;;;;4997182;28;20977;-74
2021/11/22 12:23:24;;;;;;;5.50;4.90;;;18.00;47.80;;;;;;4997402;28;20432;-74
2021/11/22 12:25:54;;;;;;;5.10;4.80;;;17.90;48.50;;;;;;4997382;28;20464;-74
2021/11/22 12:28:44;;;;;;;5.23;4.73;;;17.90;48.40;;;;;;4997344;28;20476;-74
2021/11/22 12:31:15;;;;;;;5.37;4.87;;;18.00;47.80;;;;;;4997512;28;20819;-74
2021/11/22 12:33:44;;;;;;;4.80;4.37;;;18.00;46.60;;;;;;4997235;28;20440;-74
2021/11/22 12:36:45;;;;;;;5.47;4.57;;;18.10;46.20;;;;;;4997972;28;20439;-74
2021/11/22 12:39:25;;;;;;;5.13;4.73;;;18.20;46.60;;;;;;4994471;28;20475;-74
2021/11/22 12:42:16;;;;;;;6.43;5.30;;;18.20;45.90;;;;;;4997135;28;20523;-74
2021/11/22 12:45:00;;;;;;;7.43;6.73;;;18.30;46.00;;;;;;4997128;28;20424;-74
2021/11/22 12:47:29;;;;;;;7.90;5.20;;;18.50;45.90;;;;;;4997075;28;20464;-74
2021/11/22 12:50:18;;;;;;;6.00;5.50;;;18.50;45.50;;;;;;4996909;28;20543;-74
2021/11/22 12:53:07;;;;;;;9.37;8.10;;;18.50;45.60;;;;;;4997430;28;20458;-74